logo dgac
Martes 21 de Septiembre del 2021
Buscar por aerodromo o helipuerto
Ingrese nombre de aeródromo, localidad o designador OACI:
TAF: TAF SCJO 211022Z 2112/2200 18008KT 9999 BKN010 TN08/2112Z TX18/2119Z BECMG 2113/2115 CAVOK
TAF del 21/09/2021 a las 10:22 UTC
Para mayor información visite www.meteochile.cl
Período de validez: desde el 21 a las 12:00 UTC hasta el 22 a las 00:00 UTC
Viento: dirección 180 grados, velocidad 8 nudos
Visibilidad: 10 km o más
Nubes: Nublado a 1000 pies sobre el nivel del aeródromo
Temperatura mínima: 8ºC el 21 a las 12:00 UTC
Temperatura máxima: 18ºC el 21 a las 19:00 UTC
Se espera un cambio entre las 13:00 UTC del 21 y las 15:00 UTC del 21, :
Visibilidad: 10 km o más,
    sin nubes bajo los 5.000 pies o bajo del MSA (Mínimo de Seguridad del Aeródromo),
    sin cumulonimbus, y sin fenómenos de tiempo significativo en el aeródromo o alrededores